Ammon, Idaho
Current Conditions -  °F | °C
As of 10:53 AM on Thursday 29 Jan 2015 (Local Time) from KIDA Reporting Station
Few Clouds Few Clouds  
Wind Chill: 33°   Ceiling: Unl
Heat Index: 39°   Visibility: 10mi
Dew Point: 31°   Wind: 8mph
Humidity: 73%   Direction: 60°ENE
Pressure: 30.42"   Gusts: NA
Location:  43.4284°N, 111.925°W
Report Text: KIDA 291753Z 06007KT 10SM FEW030 04/M01 A3042 RMK AO2 SLP319 T00391006 10039 20006 58003
Loading
Personal Weather Stations






























Interactive Weather Map New forecast layout! Learn more

10-Day Weather Forecast

Advertisements
Track Severe Weather on mobile